Time;durP1;ratioP1;P1;durP2;ratioP2;P2;SDS_P1;SDS_P2;PMS_P1;PMS_P2;Temp;Humidity;BMP_temperature;BMP_pressure;BME280_temperature;BME280_humidity;BME280_pressure;Samples;Min_cycle;Max_cycle;Signal;HPM_P1;HPM_P2
2022/09/27 00:01:29;;;;;;;2.05;0.95;;;;;;;13.50;83.47;100908.95;1854384;77;21056;-61
2022/09/27 00:03:59;;;;;;;3.40;1.10;;;;;;;13.61;83.37;100910.20;1854304;77;21068;-61
2022/09/27 00:06:30;;;;;;;2.17;0.80;;;;;;;13.71;83.41;100904.86;1854503;77;21072;-61
2022/09/27 00:09:00;;;;;;;2.15;0.80;;;;;;;13.78;83.34;100889.55;1854194;77;21134;-61
2022/09/27 00:11:37;;;;;;;1.47;0.90;;;;;;;13.82;83.42;100897.24;1854304;77;21048;-61
2022/09/27 00:14:07;;;;;;;3.02;0.88;;;;;;;13.85;83.34;100894.45;1854334;77;21056;-61
2022/09/27 00:16:39;;;;;;;3.45;1.15;;;;;;;13.87;83.25;100887.29;1854293;77;21138;-62
2022/09/27 00:19:13;;;;;;;2.37;0.90;;;;;;;13.88;83.15;100886.81;1854277;77;21052;-62
2022/09/27 00:21:43;;;;;;;2.65;0.88;;;;;;;13.87;83.08;100879.82;1853367;76;21451;-61
2022/09/27 00:24:17;;;;;;;2.22;0.80;;;;;;;13.88;83.20;100871.78;1854323;77;21486;-61
2022/09/27 00:26:47;;;;;;;1.22;0.75;;;;;;;13.89;83.18;100870.86;1853861;76;21088;-61
2022/09/27 00:29:18;;;;;;;3.67;1.02;;;;;;;13.91;83.22;100869.46;1852818;77;21526;-61
2022/09/27 00:31:48;;;;;;;1.10;0.80;;;;;;;13.96;83.34;100877.16;1852800;77;21044;-62
2022/09/27 00:34:20;;;;;;;1.80;0.95;;;;;;;14.01;83.61;100875.13;1852847;77;21020;-61
2022/09/27 00:36:50;;;;;;;1.42;0.80;;;;;;;14.02;83.69;100876.86;1852795;77;21063;-61
2022/09/27 00:39:19;;;;;;;1.62;0.80;;;;;;;14.00;83.37;100878.70;1852970;77;21044;-62
2022/09/27 00:41:48;;;;;;;2.15;0.90;;;;;;;14.02;83.35;100876.86;1852855;77;21458;-62
2022/09/27 00:44:32;;;;;;;1.32;1.00;;;;;;;14.00;83.22;100873.41;1852803;77;21130;-62
2022/09/27 00:47:19;;;;;;;1.17;0.78;;;;;;;13.94;83.11;100879.02;1852712;77;21063;-61
2022/09/27 00:49:53;;;;;;;3.00;1.12;;;;;;;13.90;83.10;100877.84;1852864;77;21071;-61
2022/09/27 00:52:27;;;;;;;3.87;1.17;;;;;;;13.89;83.10;100879.27;1851521;77;21498;-61
2022/09/27 00:54:59;;;;;;;1.82;1.07;;;;;;;13.86;83.05;100880.27;1852927;77;21122;-62
2022/09/27 00:57:29;;;;;;;2.75;1.32;;;;;;;13.81;82.98;100876.98;1852765;77;21188;-61
2022/09/27 01:00:06;;;;;;;4.58;1.47;;;;;;;13.76;82.99;100878.16;1852817;77;21491;-61
2022/09/27 01:02:37;;;;;;;4.35;1.57;;;;;;;13.74;83.10;100878.26;1852908;77;21101;-62
2022/09/27 01:05:09;;;;;;;3.58;1.22;;;;;;;13.72;83.17;100884.06;1852752;77;21039;-62
2022/09/27 01:07:38;;;;;;;5.85;1.87;;;;;;;13.70;83.24;100883.29;1852826;77;21129;-61
2022/09/27 01:10:08;;;;;;;2.50;1.52;;;;;;;13.73;83.42;100880.50;1852833;77;21133;-61
2022/09/27 01:12:48;;;;;;;2.80;1.25;;;;;;;13.78;83.59;100879.81;1852929;77;21118;-61
2022/09/27 01:15:26;;;;;;;4.53;1.00;;;;;;;13.84;83.78;100882.14;1852787;77;21071;-61
2022/09/27 01:18:10;;;;;;;1.60;1.10;;;;;;;13.90;83.92;100873.88;1852670;77;21502;-61
2022/09/27 01:21:02;;;;;;;2.17;1.02;;;;;;;14.00;83.96;100874.73;1852835;77;21133;-61
2022/09/27 01:23:51;;;;;;;2.60;0.90;;;;;;;14.06;84.00;100875.77;1851599;77;21137;-61
2022/09/27 01:26:44;;;;;;;3.10;1.05;;;;;;;14.08;84.08;100876.53;1852796;77;21063;-61
2022/09/27 01:29:37;;;;;;;4.05;1.20;;;;;;;14.07;83.83;100880.98;1852670;77;21596;-61
2022/09/27 01:32:09;;;;;;;4.90;1.02;;;;;;;14.05;83.75;100892.56;1852509;77;21149;-62
2022/09/27 01:34:56;;;;;;;4.65;1.42;;;;;;;14.01;83.69;100888.37;1852807;77;21576;-61
2022/09/27 01:37:33;;;;;;;4.37;1.70;;;;;;;13.97;83.64;100864.32;1852793;77;21082;-61
2022/09/27 01:40:23;;;;;;;3.65;1.92;;;;;;;13.94;83.57;100869.76;1852841;77;21157;-63
2022/09/27 01:43:05;;;;;;;2.45;1.30;;;;;;;13.89;83.49;100876.16;1853437;76;21545;-63
2022/09/27 01:45:41;;;;;;;6.67;1.12;;;;;;;13.85;83.38;100882.55;1852624;77;21079;-63
2022/09/27 01:48:17;;;;;;;2.65;1.20;;;;;;;13.79;83.21;100881.51;1852525;77;21067;-62
2022/09/27 01:50:57;;;;;;;2.30;1.17;;;;;;;13.70;83.13;100874.03;1852752;76;21035;-62
2022/09/27 01:53:40;;;;;;;4.78;0.93;;;;;;;13.63;83.14;100869.97;1852807;77;21040;-62
2022/09/27 01:56:14;;;;;;;2.02;1.42;;;;;;;13.59;83.16;100875.03;1852425;76;21469;-62
2022/09/27 01:58:59;;;;;;;3.98;1.70;;;;;;;13.61;83.32;100863.91;1847524;77;21063;-62
2022/09/27 02:01:31;;;;;;;1.70;1.30;;;;;;;13.64;83.41;100861.12;1852854;77;21047;-62
2022/09/27 02:04:03;;;;;;;2.02;1.12;;;;;;;13.71;83.61;100862.52;1852982;77;21087;-62
2022/09/27 02:06:52;;;;;;;3.37;1.05;;;;;;;13.79;83.84;100855.04;1852773;77;21125;-62
2022/09/27 02:09:32;;;;;;;;;;;;;;;13.85;83.88;100869.31;1855179;77;21543;-62
2022/09/27 02:12:08;;;;;;;2.60;1.07;;;;;;;13.88;83.79;100864.31;1842997;78;20158;-62
2022/09/27 02:14:40;;;;;;;2.67;1.10;;;;;;;13.87;83.58;100860.81;1871814;76;21474;-61
2022/09/27 02:17:36;;;;;;;1.50;1.17;;;;;;;13.93;83.66;100862.77;1881046;76;21036;-62
2022/09/27 02:20:23;;;;;;;6.55;1.72;;;;;;;13.96;83.61;100861.27;1891337;75;21044;-64
2022/09/27 02:22:57;;;;;;;8.23;3.65;;;;;;;13.96;83.54;100853.33;1891323;75;21596;-62
2022/09/27 02:25:43;;;;;;;5.30;3.25;;;;;;;13.94;83.39;100855.20;1891433;76;21012;-62
2022/09/27 02:28:27;;;;;;;2.72;1.87;;;;;;;13.89;83.29;100847.52;1891368;75;21125;-62
2022/09/27 02:30:56;;;;;;;;;;;;;;;13.80;83.17;100844.86;1894099;75;21153;-62
2022/09/27 02:33:44;;;;;;;4.42;2.05;;;;;;;13.69;83.13;100843.23;1891197;75;20151;-62
2022/09/27 02:36:14;;;;;;;3.50;1.40;;;;;;;13.60;82.91;100849.83;1891383;75;21052;-62
2022/09/27 02:38:44;;;;;;;6.62;2.10;;;;;;;13.54;82.94;100841.33;1891465;75;21104;-62
2022/09/27 02:41:16;;;;;;;3.90;1.90;;;;;;;13.50;83.01;100836.21;1891010;75;21616;-62
2022/09/27 02:43:47;;;;;;;5.87;1.30;;;;;;;13.47;83.07;100840.80;1891200;75;21124;-61
2022/09/27 02:46:37;;;;;;;3.45;1.40;;;;;;;13.45;83.17;100840.87;1891527;75;21138;-62
2022/09/27 02:49:33;;;;;;;6.83;2.05;;;;;;;13.47;83.21;100838.15;1891420;76;21068;-62
2022/09/27 02:52:27;;;;;;;3.52;1.82;;;;;;;13.49;83.23;100829.67;1846787;77;21069;-62
2022/09/27 02:54:56;;;;;;;;;;;;;;;13.55;83.31;100829.83;1892791;75;21043;-61
2022/09/27 02:57:51;;;;;;;6.17;1.75;;;;;;;13.59;83.28;100834.02;1888353;76;20117;-62
2022/09/27 03:00:24;;;;;;;4.95;1.70;;;;;;;13.56;83.04;100835.05;1887685;75;21469;-61
2022/09/27 03:03:00;;;;;;;1.52;1.25;;;;;;;13.55;82.96;100841.73;1890127;75;21210;-61
2022/09/27 03:05:35;;;;;;;1.98;1.20;;;;;;;13.50;82.86;100846.80;1889802;75;21037;-61
2022/09/27 03:08:05;;;;;;;2.70;1.40;;;;;;;13.47;82.93;100845.61;1891468;75;21064;-62
2022/09/27 03:10:34;;;;;;;4.20;2.50;;;;;;;13.53;83.15;100842.28;1891527;76;21550;-61
2022/09/27 03:13:03;;;;;;;2.70;1.95;;;;;;;13.58;83.30;100831.01;1891644;76;21094;-62
2022/09/27 03:15:33;;;;;;;2.60;1.60;;;;;;;13.63;83.37;100838.22;1891442;75;21118;-62
2022/09/27 03:18:04;;;;;;;4.90;1.98;;;;;;;13.63;83.34;100842.19;1891412;75;21076;-62
2022/09/27 03:20:37;;;;;;;1.80;1.30;;;;;;;13.65;83.42;100839.03;1891276;75;21092;-61
2022/09/27 03:23:07;;;;;;;4.40;1.67;;;;;;;13.65;83.43;100842.52;1891109;75;21064;-62
2022/09/27 03:25:36;;;;;;;2.92;1.70;;;;;;;13.63;83.34;100843.52;1891550;76;21033;-62
2022/09/27 03:28:05;;;;;;;6.15;2.52;;;;;;;13.57;83.34;100838.54;1891513;74;21076;-62
2022/09/27 03:30:35;;;;;;;22.87;9.28;;;;;;;13.53;83.25;100839.63;1891454;76;21119;-59
2022/09/27 03:33:04;;;;;;;165.97;59.58;;;;;;;13.45;83.10;100843.52;1891520;76;21137;-59
2022/09/27 03:35:36;;;;;;;46.63;20.70;;;;;;;13.37;82.93;100848.78;1891755;75;21621;-59
2022/09/27 03:38:06;;;;;;;24.65;11.03;;;;;;;13.28;82.86;100846.95;1891651;75;21052;-59
2022/09/27 03:40:35;;;;;;;16.15;7.53;;;;;;;13.21;82.76;100847.33;1891475;75;21522;-61
2022/09/27 03:43:05;;;;;;;8.35;3.67;;;;;;;13.11;82.68;100845.12;1891515;75;21140;-60
2022/09/27 03:45:34;;;;;;;7.45;3.35;;;;;;;13.05;82.64;100841.44;1891429;75;21231;-61
2022/09/27 03:48:04;;;;;;;6.80;2.75;;;;;;;13.02;82.64;100836.77;1890869;75;21120;-61
2022/09/27 03:50:33;;;;;;;6.67;2.98;;;;;;;13.00;82.52;100832.86;1891398;76;21048;-60
2022/09/27 03:53:02;;;;;;;4.08;2.83;;;;;;;13.00;82.39;100820.97;1891502;76;21029;-60
2022/09/27 03:55:32;;;;;;;8.30;3.17;;;;;;;13.01;82.26;100817.41;1891424;76;21036;-60
2022/09/27 03:58:01;;;;;;;5.78;2.92;;;;;;;13.05;82.12;100818.97;1891405;76;21106;-60
2022/09/27 04:00:31;;;;;;;6.60;2.77;;;;;;;13.07;82.05;100817.11;1891364;76;21082;-61
2022/09/27 04:03:00;;;;;;;6.53;2.80;;;;;;;13.18;82.06;100807.81;1891517;75;21028;-61
2022/09/27 04:05:31;;;;;;;8.73;4.17;;;;;;;13.38;82.13;100807.72;1888323;76;21063;-62
2022/09/27 04:08:02;;;;;;;7.70;2.95;;;;;;;13.57;81.99;100809.44;1890488;75;21094;-61
2022/09/27 04:10:32;;;;;;;11.10;3.75;;;;;;;13.76;81.78;100812.87;1891381;76;21044;-61
2022/09/27 04:13:02;;;;;;;11.33;3.98;;;;;;;13.98;81.69;100811.30;1891345;76;21522;-60
2022/09/27 04:15:32;;;;;;;12.13;3.70;;;;;;;14.16;81.57;100817.40;1891094;75;21527;-61
2022/09/27 04:18:19;;;;;;;9.23;4.33;;;;;;;14.36;81.48;100803.58;1891373;76;21044;-61
2022/09/27 04:20:52;;;;;;;;;;;;;;;14.46;81.41;100805.65;1867736;75;21149;-61
2022/09/27 04:23:21;;;;;;;4.97;2.83;;;;;;;14.48;81.34;100805.58;1891325;76;20269;-61
2022/09/27 04:25:51;;;;;;;10.65;6.08;;;;;;;14.48;81.02;100813.05;1891281;75;21130;-61
2022/09/27 04:28:22;;;;;;;14.60;6.03;;;;;;;14.54;80.98;100811.85;1888276;75;21129;-61
2022/09/27 04:30:52;;;;;;;23.05;10.48;;;;;;;14.51;80.75;100815.14;1890180;75;21089;-61
2022/09/27 04:33:39;;;;;;;60.17;18.35;;;;;;;14.49;80.55;100823.16;1890013;75;21065;-61
2022/09/27 04:36:28;;;;;;;52.50;16.37;;;;;;;14.54;80.36;100815.83;1888290;76;21052;-61
2022/09/27 04:39:04;;;;;;;33.80;12.13;;;;;;;14.59;80.13;100807.64;1890467;75;21061;-61
2022/09/27 04:41:35;;;;;;;36.93;11.85;;;;;;;14.59;80.00;100796.59;1890241;76;21041;-61
2022/09/27 04:55:49;;;;;;;11.22;3.58;;;;;;;14.81;79.22;100792.29;1973650;72;26225;-59
2022/09/27 04:58:18;;;;;;;13.43;3.37;;;;;;;14.81;79.14;100788.76;1949165;73;21506;-61
2022/09/27 05:00:47;;;;;;;9.35;2.52;;;;;;;14.93;79.14;100796.03;1948881;73;21133;-60
2022/09/27 05:03:18;;;;;;;7.40;2.65;;;;;;;15.08;79.18;100792.98;1943002;73;21139;-60
2022/09/27 05:05:55;;;;;;;6.40;2.10;;;;;;;15.22;79.12;100796.19;1948264;73;21080;-61
2022/09/27 05:08:24;;;;;;;5.75;2.60;;;;;;;15.33;79.00;100793.77;1949043;73;21116;-61
2022/09/27 05:11:11;;;;;;;9.23;3.22;;;;;;;15.46;78.88;100797.04;1948915;73;21585;-61
2022/09/27 05:13:40;;;;;;;9.15;2.90;;;;;;;15.62;78.69;100793.83;1948963;73;21482;-61
2022/09/27 05:16:10;;;;;;;5.35;2.37;;;;;;;15.75;78.59;100800.18;1948993;73;21048;-61
2022/09/27 05:18:41;;;;;;;3.20;1.77;;;;;;;16.20;78.78;100792.16;1946027;73;21530;-61
2022/09/27 05:21:14;;;;;;;4.45;1.40;;;;;;;17.00;78.74;100784.94;1929689;73;21470;-61
2022/09/27 05:23:45;;;;;;;2.98;1.30;;;;;;;17.88;78.39;100787.95;1948353;73;21162;-61
2022/09/27 05:26:13;;;;;;;1.60;0.93;;;;;;;18.20;77.81;100779.52;1949008;73;21360;-61
2022/09/27 05:28:42;;;;;;;4.15;1.60;;;;;;;18.29;77.18;100780.20;1948982;73;21047;-61
2022/09/27 05:31:12;;;;;;;1.45;1.10;;;;;;;18.44;76.81;100779.13;1948980;73;21039;-61
2022/09/27 05:33:42;;;;;;;2.92;1.10;;;;;;;18.62;76.51;100773.42;1949005;73;21055;-61
2022/09/27 05:36:22;;;;;;;4.72;1.37;;;;;;;18.86;76.30;100771.66;1944941;73;21081;-61
2022/09/27 05:38:51;;;;;;;2.37;0.90;;;;;;;19.45;76.00;100773.98;1948949;73;21085;-61
2022/09/27 05:41:20;;;;;;;3.17;0.80;;;;;;;20.27;75.06;100769.91;1949031;73;21047;-61
2022/09/27 05:43:49;;;;;;;2.35;0.98;;;;;;;20.75;73.29;100762.06;1948961;73;21055;-61
2022/09/27 05:46:18;;;;;;;2.67;0.70;;;;;;;21.43;72.54;100766.68;1948976;73;21038;-61
2022/09/27 05:48:47;;;;;;;3.50;0.90;;;;;;;22.43;71.04;100767.98;1948849;73;21224;-61
2022/09/27 05:51:18;;;;;;;1.98;0.80;;;;;;;23.24;69.12;100766.05;1948973;73;21020;-61
2022/09/27 05:53:46;;;;;;;2.72;0.72;;;;;;;23.78;67.73;100758.34;1948943;73;21164;-61
2022/09/27 05:56:17;;;;;;;3.08;0.90;;;;;;;24.25;65.75;100763.74;1942536;73;21130;-61
2022/09/27 05:59:04;;;;;;;3.98;1.00;;;;;;;24.04;64.98;100756.38;1943569;74;21048;-61
2022/09/27 06:01:35;;;;;;;2.35;0.95;;;;;;;23.34;65.26;100755.30;1940031;74;21478;-61
2022/09/27 06:04:21;;;;;;;2.75;0.98;;;;;;;22.71;65.42;100757.84;1943818;74;21063;-61
2022/09/27 06:06:52;;;;;;;1.50;0.90;;;;;;;22.01;65.53;100762.22;1941951;74;21083;-61
2022/09/27 06:09:21;;;;;;;1.35;0.78;;;;;;;21.63;66.28;100757.48;1943035;74;21113;-61
2022/09/27 06:11:50;;;;;;;6.65;1.20;;;;;;;21.30;66.67;100749.95;1943111;74;21079;-61
2022/09/27 06:14:19;;;;;;;4.87;1.20;;;;;;;21.01;67.16;100758.11;1943028;74;21024;-61
2022/09/27 06:16:59;;;;;;;3.98;0.85;;;;;;;20.81;67.57;100750.39;1942252;74;21154;-61
2022/09/27 06:19:29;;;;;;;4.15;1.10;;;;;;;20.72;67.87;100751.14;1942679;74;21538;-61
2022/09/27 06:22:19;;;;;;;2.30;1.00;;;;;;;20.66;68.14;100750.78;1809332;79;21145;-60
2022/09/27 06:24:50;;;;;;;2.50;1.25;;;;;;;20.61;68.50;100743.14;1810325;78;21080;-61
2022/09/27 06:27:20;;;;;;;2.20;1.30;;;;;;;20.57;68.71;100733.15;1809712;78;21574;-61
2022/09/27 06:29:51;;;;;;;2.92;1.30;;;;;;;20.55;68.93;100726.23;1809427;78;21076;-60
2022/09/27 06:32:21;;;;;;;3.83;1.30;;;;;;;20.54;69.10;100737.89;1811326;78;21084;-62
2022/09/27 06:34:52;;;;;;;3.50;1.20;;;;;;;20.56;69.21;100734.60;1810668;78;21107;-61
2022/09/27 06:37:26;;;;;;;3.92;1.40;;;;;;;20.56;69.45;100729.25;1809335;78;21089;-61
2022/09/27 06:39:54;;;;;;;;;;;;;;;20.58;69.55;100730.84;1812049;79;21097;-61
2022/09/27 06:42:43;;;;;;;6.65;1.10;;;;;;;20.63;69.52;100726.48;1810891;78;20149;-61
2022/09/27 06:45:14;;;;;;;6.12;1.57;;;;;;;20.63;69.62;100727.31;1809843;78;21543;-61
2022/09/27 06:48:01;;;;;;;3.87;0.95;;;;;;;20.64;69.81;100717.48;1809224;79;21167;-61
2022/09/27 06:50:45;;;;;;;3.95;1.52;;;;;;;20.67;69.83;100717.22;1804992;79;21077;-60
2022/09/27 06:53:15;;;;;;;3.08;1.17;;;;;;;20.69;69.90;100712.59;1809097;79;21146;-61
2022/09/27 06:55:44;;;;;;;7.20;2.70;;;;;;;20.71;69.92;100703.98;1809243;78;21094;-60
2022/09/27 07:01:20;;;;;;;5.00;1.10;;;;;;;20.82;69.72;100689.68;1812078;78;21069;-60
2022/09/27 07:04:10;;;;;;;2.37;0.88;;;;;;;20.83;69.53;100692.23;1809238;79;21626;-60
2022/09/27 07:06:57;;;;;;;2.87;2.35;;;;;;;20.82;69.43;100683.86;1809188;79;21121;-62
2022/09/27 07:09:27;;;;;;;2.47;1.40;;;;;;;20.83;69.28;100688.72;1809246;77;21080;-61
2022/09/27 07:11:56;;;;;;;3.60;0.88;;;;;;;20.91;69.10;100696.95;1809141;78;21084;-61
2022/09/27 07:14:26;;;;;;;2.52;1.45;;;;;;;20.99;68.90;100690.98;1809273;79;21548;-61
2022/09/27 07:16:56;;;;;;;2.08;1.60;;;;;;;21.06;68.72;100686.78;1809299;78;21094;-61
2022/09/27 07:19:26;;;;;;;2.83;1.70;;;;;;;21.11;68.58;100681.89;1809221;79;21147;-61
2022/09/27 07:21:55;;;;;;;2.80;1.87;;;;;;;21.17;68.24;100684.07;1824771;75;21164;-61
2022/09/27 07:24:24;;;;;;;9.50;3.65;;;;;;;21.26;68.16;100681.58;1833930;78;21129;-62
2022/09/27 07:26:54;;;;;;;3.55;1.85;;;;;;;21.36;68.08;100679.83;1834053;78;21034;-61
2022/09/27 07:29:23;;;;;;;3.45;1.50;;;;;;;21.41;68.09;100681.59;1834123;77;21113;-60
2022/09/27 07:31:54;;;;;;;5.85;1.65;;;;;;;21.44;67.83;100681.84;1833929;77;21477;-60
2022/09/27 07:34:23;;;;;;;2.35;1.62;;;;;;;21.40;67.64;100681.25;1833967;78;21070;-61
2022/09/27 07:36:53;;;;;;;3.98;1.10;;;;;;;21.42;67.71;100674.44;1833943;77;21140;-62
2022/09/27 07:39:23;;;;;;;2.58;1.65;;;;;;;21.39;67.50;100676.86;1834060;78;21161;-61
2022/09/27 07:41:52;;;;;;;3.40;1.95;;;;;;;21.34;67.03;100668.37;1833975;77;21078;-61
2022/09/27 07:44:23;;;;;;;2.12;1.20;;;;;;;21.35;67.01;100668.73;1834086;77;21054;-61
2022/09/27 07:46:56;;;;;;;3.65;1.40;;;;;;;21.39;66.92;100668.83;1831510;78;21151;-61
2022/09/27 07:49:26;;;;;;;1.85;0.70;;;;;;;21.46;66.79;100678.07;1831705;78;21144;-61
2022/09/27 07:51:57;;;;;;;3.87;0.98;;;;;;;21.57;66.20;100687.86;1830584;78;21062;-61
2022/09/27 07:54:44;;;;;;;1.42;0.90;;;;;;;21.68;65.92;100684.27;1833939;78;21185;-60
2022/09/27 07:57:33;;;;;;;4.20;0.88;;;;;;;21.78;65.34;100689.16;1832625;78;21484;-61
2022/09/27 08:00:07;;;;;;;2.37;1.00;;;;;;;21.86;64.66;100685.34;1833865;77;21030;-61
2022/09/27 08:02:38;;;;;;;1.37;0.98;;;;;;;21.97;64.42;100679.88;1833545;78;21065;-61
2022/09/27 08:05:08;;;;;;;5.95;0.80;;;;;;;22.10;63.95;100674.78;1834019;78;21148;-61
2022/09/27 08:07:38;;;;;;;3.45;0.68;;;;;;;22.23;63.77;100659.28;1834105;77;21056;-61
2022/09/27 08:10:08;;;;;;;1.90;0.80;;;;;;;22.39;63.05;100657.92;1834258;77;21054;-60
2022/09/27 08:12:38;;;;;;;3.50;1.00;;;;;;;22.61;62.67;100653.67;1833846;77;21050;-61
2022/09/27 08:15:07;;;;;;;1.42;0.75;;;;;;;22.86;62.32;100654.09;1834024;78;21054;-61
2022/09/27 08:17:37;;;;;;;3.33;0.88;;;;;;;23.05;61.61;100654.09;1833979;77;21073;-61
2022/09/27 08:20:08;;;;;;;3.90;1.00;;;;;;;23.17;60.97;100658.83;1833804;77;21139;-61
2022/09/27 08:22:55;;;;;;;1.82;0.90;;;;;;;23.27;60.60;100649.40;1856355;77;21141;-61
2022/09/27 08:25:35;;;;;;;5.40;0.85;;;;;;;23.38;59.97;100643.86;1887934;76;21543;-61
2022/09/27 08:28:06;;;;;;;1.42;0.80;;;;;;;23.52;59.62;100656.00;1886437;74;21604;-61
2022/09/27 08:30:39;;;;;;;1.95;0.50;;;;;;;23.54;57.66;100643.26;1887601;73;21041;-61
2022/09/27 08:33:09;;;;;;;1.27;0.85;;;;;;;23.69;57.22;100638.25;1886281;76;21103;-61
2022/09/27 08:35:38;;;;;;;1.92;0.60;;;;;;;24.00;56.26;100646.08;1866624;77;21664;-61
2022/09/27 08:38:07;;;;;;;1.25;0.70;;;;;;;24.43;55.13;100645.88;1888592;76;21149;-61
2022/09/27 08:40:48;;;;;;;2.17;0.80;;;;;;;24.86;54.03;100638.89;1886175;76;21081;-60
2022/09/27 08:43:31;;;;;;;3.40;0.68;;;;;;;25.81;51.73;100631.79;1886283;74;21073;-61
2022/09/27 08:46:09;;;;;;;3.77;1.10;;;;;;;26.55;49.43;100627.97;1886598;74;21484;-61
2022/09/27 08:48:39;;;;;;;1.70;0.93;;;;;;;26.90;48.28;100623.30;1886708;74;21061;-61
2022/09/27 08:51:11;;;;;;;2.10;0.80;;;;;;;27.19;46.42;100619.23;1886228;76;21107;-61
2022/09/27 08:53:55;;;;;;;1.95;1.17;;;;;;;27.04;47.25;100621.78;1886126;76;21460;-61
2022/09/27 08:56:26;;;;;;;2.72;0.90;;;;;;;27.28;46.13;100626.34;1885962;76;21099;-60
2022/09/27 08:59:14;;;;;;;1.12;0.70;;;;;;;27.60;43.57;100604.27;1886299;76;21065;-61
2022/09/27 09:01:43;;;;;;;1.25;0.80;;;;;;;28.14;42.85;100618.42;1886158;76;21476;-61
2022/09/27 09:04:19;;;;;;;3.40;1.05;;;;;;;28.39;41.27;100616.42;1868326;75;21081;-60
2022/09/27 09:07:26;;;;;;;2.77;1.05;;;;;;;28.29;42.13;100614.44;1886126;76;21469;-61
2022/09/27 09:10:07;;;;;;;2.58;0.93;;;;;;;27.82;41.83;100611.30;1886162;76;21650;-61
2022/09/27 09:12:55;;;;;;;1.87;0.82;;;;;;;27.42;43.30;100609.06;1887482;74;21127;-61
2022/09/27 09:15:53;;;;;;;3.05;0.88;;;;;;;27.32;42.86;100622.27;1885174;75;21457;-61
2022/09/27 09:18:31;;;;;;;2.33;0.90;;;;;;;27.08;43.36;100619.59;1887005;74;21038;-61
2022/09/27 09:21:31;;;;;;;3.20;0.75;;;;;;;26.52;43.29;100625.62;1813603;79;21592;-59
2022/09/27 09:24:09;;;;;;;1.55;0.88;;;;;;;26.20;44.23;100617.78;1690663;85;21150;-61
2022/09/27 09:27:02;;;;;;;1.05;0.82;;;;;;;26.43;43.86;100610.43;1801477;79;21504;-61
2022/09/27 09:30:05;;;;;;;2.00;0.60;;;;;;;27.33;43.25;100610.45;1813976;79;21200;-61
2022/09/27 09:32:58;;;;;;;1.90;0.90;;;;;;;28.35;42.07;100604.27;1813383;79;21120;-61
2022/09/27 09:35:53;;;;;;;1.75;1.05;;;;;;;29.13;40.35;100590.09;1751597;82;21097;-60
2022/09/27 09:38:44;;;;;;;0.90;0.60;;;;;;;29.19;40.39;100574.98;1794832;79;21159;-60
2022/09/27 09:41:28;;;;;;;2.70;0.90;;;;;;;28.60;39.83;100579.73;1794966;80;21558;-60
2022/09/27 09:44:02;;;;;;;2.00;1.30;;;;;;;27.57;41.23;100570.81;1794998;80;21073;-61
2022/09/27 09:46:35;;;;;;;2.22;1.12;;;;;;;26.58;42.94;100568.25;1793068;79;21109;-61
2022/09/27 09:49:35;;;;;;;3.52;0.90;;;;;;;25.91;44.32;100575.52;1794948;79;21473;-60
2022/09/27 09:52:13;;;;;;;1.85;1.00;;;;;;;25.32;45.20;100557.92;1794988;79;21086;-61
2022/09/27 09:54:54;;;;;;;1.98;0.80;;;;;;;24.84;46.36;100542.13;1794910;79;21093;-61
2022/09/27 09:57:41;;;;;;;3.20;1.00;;;;;;;24.57;47.18;100522.08;1794036;79;21105;-61
2022/09/27 10:00:17;;;;;;;2.37;0.90;;;;;;;24.38;47.68;100544.09;1794693;80;21581;-61
2022/09/27 10:02:48;;;;;;;5.78;0.90;;;;;;;24.28;48.02;100566.18;1795042;80;21038;-61
2022/09/27 10:05:21;;;;;;;4.45;0.80;;;;;;;24.13;48.11;100547.04;1794677;80;21657;-61
2022/09/27 10:07:56;;;;;;;2.67;1.07;;;;;;;24.04;48.38;100529.13;1794847;80;21100;-61
2022/09/27 10:10:26;;;;;;;3.55;1.05;;;;;;;24.02;48.77;100552.64;1795144;80;21057;-61
2022/09/27 10:13:04;;;;;;;1.98;0.88;;;;;;;24.03;49.12;100551.63;1761437;80;21089;-61
2022/09/27 10:15:34;;;;;;;2.37;1.00;;;;;;;24.09;49.15;100549.19;1794493;80;21074;-61
2022/09/27 10:18:03;;;;;;;3.85;1.27;;;;;;;24.30;48.91;100544.51;1795008;80;21085;-60
2022/09/27 10:20:53;;;;;;;1.52;0.55;;;;;;;24.58;48.26;100547.46;1768060;78;21135;-60
2022/09/27 10:23:24;;;;;;;2.70;0.72;;;;;;;25.03;47.42;100538.89;1959831;73;21043;-60
2022/09/27 10:26:12;;;;;;;1.32;0.82;;;;;;;25.56;46.83;100545.92;1959341;73;21132;-60
2022/09/27 10:28:50;;;;;;;1.95;0.82;;;;;;;25.69;46.82;100528.42;1959775;73;21014;-61
2022/09/27 10:31:20;;;;;;;;;;;;;;;25.48;46.25;100524.83;1962748;73;21039;-61
2022/09/27 10:34:00;;;;;;;6.92;1.40;;;;;;;25.42;46.47;100516.89;1957857;73;20111;-61
2022/09/27 10:36:33;;;;;;;3.27;1.17;;;;;;;25.42;46.38;100512.33;1959821;73;21477;-60
2022/09/27 10:39:08;;;;;;;5.60;0.80;;;;;;;25.58;46.32;100508.00;1959921;73;21023;-60
2022/09/27 10:41:40;;;;;;;7.28;1.10;;;;;;;25.61;46.23;100510.38;1957039;73;21477;-60
2022/09/27 10:44:22;;;;;;;1.10;0.70;;;;;;;25.43;46.12;100511.34;1959818;73;21534;-60
2022/09/27 10:46:55;;;;;;;6.00;1.05;;;;;;;25.27;46.38;100518.00;1958439;73;21069;-60
2022/09/27 10:49:43;;;;;;;1.98;1.00;;;;;;;25.07;46.40;100521.91;1959614;73;21058;-60
2022/09/27 10:52:22;;;;;;;7.55;1.12;;;;;;;24.95;46.38;100514.07;1958057;73;21034;-60
2022/09/27 10:55:04;;;;;;;3.40;1.20;;;;;;;24.97;46.67;100505.36;1959875;73;21027;-61
2022/09/27 10:57:33;;;;;;;6.28;0.88;;;;;;;24.97;46.08;100517.48;1959552;73;21539;-60
2022/09/27 11:00:09;;;;;;;3.12;1.52;;;;;;;24.93;45.76;100522.81;1959811;73;21462;-61
2022/09/27 11:02:40;;;;;;;1.90;0.95;;;;;;;24.82;45.19;100509.61;1942314;73;21058;-61
2022/09/27 11:05:29;;;;;;;3.60;1.10;;;;;;;24.76;45.23;100510.26;1959898;73;21497;-61
2022/09/27 11:08:02;;;;;;;3.75;0.80;;;;;;;24.70;45.04;100505.01;1953673;73;21030;-61
2022/09/27 11:10:36;;;;;;;4.15;1.02;;;;;;;24.61;45.22;100495.19;1959504;73;21118;-60
2022/09/27 11:13:14;;;;;;;3.72;1.00;;;;;;;24.52;45.23;100495.61;1960001;73;21132;-60
2022/09/27 11:16:09;;;;;;;1.77;0.80;;;;;;;24.45;44.59;100482.41;1959985;73;21027;-60
2022/09/27 11:18:47;;;;;;;3.15;1.17;;;;;;;24.39;44.36;100477.15;1960005;73;21074;-60
2022/09/27 11:21:35;;;;;;;1.37;0.90;;;;;;;24.34;44.59;100477.27;1959689;73;21062;-60
2022/09/27 11:24:12;;;;;;;5.50;1.37;;;;;;;24.28;44.12;100474.20;1947888;73;21538;-60
2022/09/27 11:26:56;;;;;;;1.40;0.85;;;;;;;24.21;43.69;100473.64;1959897;73;21774;-61
2022/09/27 11:29:45;;;;;;;2.92;0.90;;;;;;;24.21;43.53;100473.64;1959826;73;21293;-61
2022/09/27 11:33:04;;;;;;;1.95;0.80;;;;;;;24.20;42.53;100458.52;1894475;76;21151;-60
2022/09/27 11:35:57;;;;;;;5.45;0.90;;;;;;;24.23;40.17;100454.98;1894587;76;21055;-61
2022/09/27 11:38:52;;;;;;;2.20;1.00;;;;;;;24.33;39.97;100455.39;1895154;76;21456;-61
2022/09/27 11:41:49;;;;;;;1.62;0.80;;;;;;;24.42;39.83;100470.12;1866004;77;21051;-60
2022/09/27 11:44:41;;;;;;;4.33;1.95;;;;;;;24.47;39.54;100467.81;1866671;77;21063;-60
2022/09/27 11:47:40;;;;;;;1.35;0.90;;;;;;;24.47;40.05;100468.29;1866644;77;21141;-60
2022/09/27 11:50:14;;;;;;;2.70;1.00;;;;;;;24.42;39.54;100463.87;1904478;74;21183;-61
2022/09/27 11:53:05;;;;;;;1.20;0.70;;;;;;;24.40;39.47;100459.15;1910501;75;21078;-60
2022/09/27 11:55:53;;;;;;;1.50;0.80;;;;;;;24.45;39.40;100456.84;1909977;74;21051;-60
2022/09/27 11:58:50;;;;;;;1.62;1.00;;;;;;;24.50;39.31;100453.69;1910762;75;21532;-60
2022/09/27 12:01:37;;;;;;;1.60;0.70;;;;;;;24.51;38.35;100447.30;1907930;74;21489;-60
2022/09/27 12:04:09;;;;;;;2.98;0.98;;;;;;;24.54;38.38;100441.64;1878204;76;21800;-59
2022/09/27 12:07:23;;;;;;;3.10;1.12;;;;;;;24.58;38.46;100455.11;1878285;76;21066;-60
2022/09/27 12:09:55;;;;;;;1.52;1.00;;;;;;;24.60;38.41;100453.11;1878476;76;21034;-60
2022/09/27 12:12:28;;;;;;;1.85;1.00;;;;;;;24.58;38.83;100442.48;1878104;76;21527;-61
2022/09/27 12:15:06;;;;;;;3.25;1.35;;;;;;;24.55;37.94;100441.48;1878380;76;21038;-61
2022/09/27 12:17:38;;;;;;;1.90;1.00;;;;;;;24.50;37.61;100433.51;1847484;76;21059;-61
2022/09/27 12:20:26;;;;;;;3.47;1.10;;;;;;;24.45;36.62;100444.73;1878207;76;21066;-60
2022/09/27 12:23:01;;;;;;;4.85;1.37;;;;;;;24.42;36.76;100435.14;1859464;76;21141;-60
2022/09/27 12:25:34;;;;;;;1.27;0.75;;;;;;;24.39;36.80;100427.88;1812360;76;21148;-60